Red Owl, South Dakota
Current Conditions -  °F | °C
As of 11:58 AM on Tuesday 21 Oct 2014 (Local Time) from KRCA Reporting Station
Few Clouds Few Clouds  
Wind Chill: 25°   Ceiling: Unl
Heat Index: 26°   Visibility: 10mi
Dew Point:   Wind: 16mph
Humidity: 35%   Direction: 170°S
Pressure: 29.78"   Gusts: NA
Location:  44.7°N, 102.55°W
Report Text: KRCA 211758Z 17014KT 10SM FEW080 25/09 A2978 RMK AO2A SLP066 T02490086 10249 20104 58014 $
Loading
Personal Weather Stations






























Interactive Weather Map
Tropical Storm Tracking
New forecast layout! Learn more

10-Day Weather Forecast

Advertisements
Track Severe Weather on mobile